createdAt,value
2023-02-02T00:01:53.829Z,9.20
2023-02-02T00:04:29.952Z,9.20
2023-02-02T00:06:57.512Z,9.20
2023-02-02T00:09:30.133Z,9.20
2023-02-02T00:12:01.383Z,9.20
2023-02-02T00:14:28.763Z,9.20
2023-02-02T00:16:56.864Z,9.20
2023-02-02T00:19:26.941Z,9.20
2023-02-02T00:21:58.308Z,9.20
2023-02-02T00:24:27.960Z,9.20
2023-02-02T00:26:58.814Z,9.20
2023-02-02T00:29:32.257Z,9.30
2023-02-02T00:31:59.449Z,9.30
2023-02-02T00:34:26.588Z,9.30
2023-02-02T00:36:53.877Z,9.30
2023-02-02T00:39:26.044Z,9.30
2023-02-02T00:41:53.665Z,9.30
2023-02-02T00:44:39.549Z,9.30
2023-02-02T00:47:06.794Z,9.40
2023-02-02T00:49:36.522Z,9.40
2023-02-02T00:52:09.098Z,9.30
2023-02-02T00:54:36.330Z,9.30
2023-02-02T00:57:03.980Z,9.20
2023-02-02T00:59:35.592Z,9.30
2023-02-02T01:02:07.948Z,9.30
2023-02-02T01:04:35.269Z,9.20
2023-02-02T01:07:07.137Z,9.20
2023-02-02T01:09:36.900Z,9.30
2023-02-02T01:12:06.839Z,9.20
2023-02-02T01:14:34.106Z,9.30
2023-02-02T01:17:01.384Z,9.20
2023-02-02T01:19:34.027Z,9.20
2023-02-02T01:22:03.411Z,9.30
2023-02-02T01:24:30.892Z,9.30
2023-02-02T01:27:01.116Z,9.20
2023-02-02T01:29:28.328Z,9.20
2023-02-02T01:31:55.741Z,9.20
2023-02-02T01:34:25.424Z,9.20
2023-02-02T01:36:55.206Z,9.20
2023-02-02T01:39:22.512Z,9.20
2023-02-02T01:41:49.855Z,9.20
2023-02-02T01:44:54.820Z,9.20
2023-02-02T01:47:26.058Z,9.30
2023-02-02T01:49:55.220Z,9.30
2023-02-02T01:52:25.948Z,9.20
2023-02-02T01:55:08.504Z,9.30
2023-02-02T01:58:11.719Z,9.40
2023-02-02T02:00:41.192Z,9.30
2023-02-02T02:03:13.967Z,9.30
2023-02-02T02:05:46.366Z,9.40
2023-02-02T02:08:31.291Z,9.40
2023-02-02T02:10:59.012Z,9.40
2023-02-02T02:13:47.645Z,9.30
2023-02-02T02:16:26.798Z,9.40
2023-02-02T02:19:17.694Z,9.30
2023-02-02T02:22:32.387Z,9.30
2023-02-02T02:25:30.614Z,9.30
2023-02-02T02:28:06.554Z,9.30
2023-02-02T02:30:41.848Z,9.30
2023-02-02T02:33:24.440Z,9.30
2023-02-02T02:36:00.682Z,9.30
2023-02-02T02:38:43.415Z,9.30
2023-02-02T02:41:17.471Z,9.40
2023-02-02T02:43:54.111Z,9.50
2023-02-02T02:46:23.151Z,9.40
2023-02-02T02:48:52.950Z,9.40
2023-02-02T02:51:41.048Z,9.40
2023-02-02T02:54:10.812Z,9.40
2023-02-02T02:56:44.885Z,9.30
2023-02-02T02:59:47.992Z,9.30
2023-02-02T03:02:33.333Z,9.30
2023-02-02T03:05:27.606Z,9.30
2023-02-02T03:08:11.110Z,9.40
2023-02-02T03:10:41.050Z,9.40
2023-02-02T03:13:10.623Z,9.30
2023-02-02T03:15:41.799Z,9.30
2023-02-02T03:18:09.134Z,9.30
2023-02-02T03:20:38.852Z,9.30
2023-02-02T03:23:06.124Z,9.30
2023-02-02T03:25:33.583Z,9.30
2023-02-02T03:28:01.154Z,9.30
2023-02-02T03:30:28.989Z,9.40
2023-02-02T03:32:59.075Z,9.30
2023-02-02T03:35:28.590Z,9.30
2023-02-02T03:37:56.138Z,9.30
2023-02-02T03:40:23.660Z,9.30
2023-02-02T03:42:50.942Z,9.30
2023-02-02T03:45:18.180Z,9.30
2023-02-02T03:47:50.048Z,9.40
2023-02-02T03:50:20.712Z,9.30
2023-02-02T03:52:50.032Z,9.30
2023-02-02T03:55:19.561Z,9.30
2023-02-02T03:57:46.805Z,9.30
2023-02-02T04:00:19.135Z,9.30
2023-02-02T04:02:46.393Z,9.30
2023-02-02T04:05:13.677Z,9.30
2023-02-02T04:07:43.501Z,9.20
2023-02-02T04:10:11.317Z,9.20
2023-02-02T04:12:40.694Z,9.30
2023-02-02T04:15:11.498Z,9.30
2023-02-02T04:17:38.959Z,9.30
2023-02-02T04:20:10.788Z,9.30
2023-02-02T04:22:40.314Z,9.20
2023-02-02T04:25:07.885Z,9.20
2023-02-02T04:27:35.155Z,9.10
2023-02-02T04:30:02.509Z,9.10
2023-02-02T04:32:29.914Z,9.10
2023-02-02T04:34:57.161Z,9.10
2023-02-02T04:37:24.459Z,9.10
2023-02-02T04:39:51.728Z,9.10
2023-02-02T04:42:21.129Z,9.10
2023-02-02T04:44:48.438Z,9.20
2023-02-02T04:47:15.730Z,9.20
2023-02-02T04:49:45.367Z,9.20
2023-02-02T04:52:12.652Z,9.20
2023-02-02T04:54:39.904Z,9.20
2023-02-02T04:57:07.127Z,9.20
2023-02-02T04:59:34.395Z,9.10
2023-02-02T05:02:02.165Z,9.20
2023-02-02T05:04:29.705Z,9.20
2023-02-02T05:06:57.077Z,9.10
2023-02-02T05:09:28.884Z,9.20
2023-02-02T05:11:56.092Z,9.20
2023-02-02T05:14:25.475Z,9.20
2023-02-02T05:16:53.729Z,9.30
2023-02-02T05:19:23.225Z,9.20
2023-02-02T05:21:54.649Z,9.20
2023-02-02T05:24:21.852Z,9.30
2023-02-02T05:26:53.305Z,9.30
2023-02-02T05:29:22.930Z,9.30
2023-02-02T05:31:50.532Z,9.30
2023-02-02T05:34:22.694Z,9.30
2023-02-02T05:36:52.473Z,9.20
2023-02-02T05:39:19.899Z,9.30
2023-02-02T05:41:47.249Z,9.30
2023-02-02T05:44:15.167Z,9.20
2023-02-02T05:46:45.665Z,9.20
2023-02-02T05:49:15.769Z,9.20
2023-02-02T05:51:47.770Z,9.10
2023-02-02T05:54:19.399Z,9.20
2023-02-02T05:56:48.514Z,9.20
2023-02-02T05:59:17.436Z,9.30
2023-02-02T06:01:48.557Z,9.20
2023-02-02T06:04:18.425Z,9.30
2023-02-02T06:06:48.081Z,9.30
2023-02-02T06:09:15.385Z,9.20
2023-02-02T06:11:46.724Z,9.10
2023-02-02T06:14:16.684Z,9.10
2023-02-02T06:16:43.922Z,9.20
2023-02-02T06:19:13.531Z,9.10
2023-02-02T06:21:42.970Z,9.10
2023-02-02T06:24:12.611Z,9.10
2023-02-02T06:26:39.922Z,9.10
2023-02-02T06:29:09.589Z,9.20
2023-02-02T06:31:37.001Z,9.20
2023-02-02T06:34:04.351Z,9.20
2023-02-02T06:36:31.884Z,9.20
2023-02-02T06:39:04.782Z,9.30
2023-02-02T06:41:37.757Z,9.10
2023-02-02T06:44:05.150Z,9.20
2023-02-02T06:46:32.519Z,9.20
2023-02-02T06:48:59.892Z,9.20
2023-02-02T06:51:27.141Z,9.20
2023-02-02T06:53:57.736Z,9.20
2023-02-02T06:56:26.493Z,9.20
2023-02-02T06:58:56.000Z,9.20
2023-02-02T07:01:23.424Z,9.20
2023-02-02T07:03:51.373Z,9.20
2023-02-02T07:06:27.204Z,9.20
2023-02-02T07:09:02.278Z,9.20
2023-02-02T07:11:34.460Z,9.20
2023-02-02T07:14:05.219Z,9.20
2023-02-02T07:16:37.575Z,9.30
2023-02-02T07:19:04.956Z,9.30
2023-02-02T07:21:40.996Z,9.40
2023-02-02T07:24:10.789Z,9.30
2023-02-02T07:26:40.208Z,9.40
2023-02-02T07:29:07.548Z,9.30
2023-02-02T07:31:36.659Z,9.30
2023-02-02T07:34:06.421Z,9.30
2023-02-02T07:36:36.259Z,9.30
2023-02-02T07:39:05.233Z,9.30
2023-02-02T07:41:35.326Z,9.30
2023-02-02T07:44:05.697Z,9.20
2023-02-02T07:46:33.243Z,9.20
2023-02-02T07:49:00.509Z,9.20
2023-02-02T07:51:30.070Z,9.30
2023-02-02T07:53:59.687Z,9.30
2023-02-02T07:56:30.337Z,9.20
2023-02-02T07:58:57.965Z,9.30
2023-02-02T08:01:26.673Z,9.40
2023-02-02T08:03:55.492Z,9.40
2023-02-02T08:06:25.533Z,9.30
2023-02-02T08:08:52.795Z,9.30
2023-02-02T08:11:21.841Z,9.40
2023-02-02T08:13:51.072Z,9.30
2023-02-02T08:16:21.485Z,9.40
2023-02-02T08:18:49.232Z,9.50
2023-02-02T08:21:17.356Z,9.50
2023-02-02T08:23:47.122Z,9.50
2023-02-02T08:26:16.269Z,9.60
2023-02-02T08:28:45.245Z,9.70
2023-02-02T08:31:21.672Z,9.70
2023-02-02T08:33:51.690Z,9.70
2023-02-02T08:36:21.008Z,9.70
2023-02-02T08:38:51.667Z,9.70
2023-02-02T08:41:24.228Z,9.60
2023-02-02T08:43:54.186Z,9.70
2023-02-02T08:46:24.696Z,9.70
2023-02-02T08:48:54.554Z,9.70
2023-02-02T08:51:26.684Z,9.70
2023-02-02T08:53:53.917Z,9.70
2023-02-02T08:56:22.864Z,9.60
2023-02-02T08:58:55.488Z,9.50
2023-02-02T09:01:28.734Z,9.60
2023-02-02T09:03:58.061Z,9.60
2023-02-02T09:06:30.527Z,9.60
2023-02-02T09:09:00.212Z,9.80
2023-02-02T09:11:28.023Z,9.90
2023-02-02T09:13:59.725Z,9.80
2023-02-02T09:16:28.099Z,9.90
2023-02-02T09:18:56.571Z,9.90
2023-02-02T09:21:24.326Z,9.90
2023-02-02T09:23:55.476Z,9.90
2023-02-02T09:26:29.474Z,10.00
2023-02-02T09:28:59.390Z,10.10
2023-02-02T09:31:29.863Z,10.30
2023-02-02T09:34:03.897Z,10.60
2023-02-02T09:36:31.599Z,10.50
2023-02-02T09:38:58.896Z,10.30
2023-02-02T09:41:40.514Z,10.20
2023-02-02T09:44:19.381Z,10.20
2023-02-02T09:47:04.811Z,10.30
2023-02-02T09:49:56.739Z,10.40
2023-02-02T09:53:00.046Z,10.50
2023-02-02T09:55:45.205Z,10.40
2023-02-02T09:58:48.782Z,10.30
2023-02-02T10:01:22.065Z,10.30
2023-02-02T10:04:03.104Z,10.40
2023-02-02T10:06:40.935Z,10.50
2023-02-02T10:09:40.838Z,10.60
2023-02-02T10:12:35.973Z,10.60
2023-02-02T10:15:23.317Z,10.80
2023-02-02T10:18:11.502Z,10.50
2023-02-02T10:20:41.523Z,10.60
2023-02-02T10:23:29.128Z,10.60
2023-02-02T10:26:19.489Z,10.70
2023-02-02T10:29:09.818Z,10.80
2023-02-02T10:32:00.435Z,10.80
2023-02-02T10:34:32.075Z,10.80
2023-02-02T10:37:38.006Z,10.80
2023-02-02T10:40:21.095Z,10.90
2023-02-02T10:43:08.293Z,11.00
2023-02-02T10:45:37.709Z,10.90
2023-02-02T10:48:16.909Z,10.90
2023-02-02T10:50:48.634Z,10.80
2023-02-02T10:53:21.526Z,10.90
2023-02-02T10:55:56.142Z,11.10
2023-02-02T10:58:39.079Z,11.20
2023-02-02T11:01:11.857Z,11.40
2023-02-02T11:03:40.236Z,11.30
2023-02-02T11:06:26.952Z,11.40
2023-02-02T11:09:00.541Z,11.60
2023-02-02T11:11:45.275Z,11.60
2023-02-02T11:14:41.818Z,11.80
2023-02-02T11:17:23.827Z,12.00
2023-02-02T11:19:52.384Z,12.00
2023-02-02T11:22:25.771Z,12.10
2023-02-02T11:24:53.849Z,12.10
2023-02-02T11:27:39.581Z,12.50
2023-02-02T11:30:35.829Z,12.60
2023-02-02T11:33:25.261Z,12.90
2023-02-02T11:35:56.335Z,13.30
2023-02-02T11:38:23.743Z,13.20
2023-02-02T11:41:07.035Z,13.20
2023-02-02T11:43:48.492Z,13.20
2023-02-02T11:46:34.869Z,12.80
2023-02-02T11:49:19.788Z,12.90
2023-02-02T11:52:04.610Z,13.00
2023-02-02T11:54:37.809Z,12.90
2023-02-02T11:57:16.350Z,12.80
2023-02-02T11:59:45.181Z,12.70
2023-02-02T12:02:32.109Z,12.60
2023-02-02T12:05:23.658Z,12.40
2023-02-02T12:07:51.107Z,12.10
2023-02-02T12:11:03.518Z,12.50
2023-02-02T12:13:46.232Z,12.70
2023-02-02T12:16:26.216Z,13.30
2023-02-02T12:19:26.193Z,13.70
2023-02-02T12:22:12.463Z,14.20
2023-02-02T12:25:09.317Z,13.80
2023-02-02T12:27:54.225Z,14.50
2023-02-02T12:30:52.997Z,14.70
2023-02-02T12:33:50.735Z,14.00
2023-02-02T12:36:41.705Z,13.50
2023-02-02T12:39:18.131Z,13.10
2023-02-02T12:41:54.156Z,12.70
2023-02-02T12:44:45.887Z,12.40
2023-02-02T12:47:42.145Z,11.90
2023-02-02T12:50:15.274Z,11.80
2023-02-02T12:52:56.523Z,11.60
2023-02-02T12:55:38.743Z,11.80
2023-02-02T12:58:07.558Z,12.00
2023-02-02T13:01:03.513Z,12.20
2023-02-02T13:03:55.109Z,12.20
2023-02-02T13:06:25.368Z,12.40
2023-02-02T13:09:03.206Z,12.60
2023-02-02T13:11:42.789Z,12.80
2023-02-02T13:14:16.537Z,12.90
2023-02-02T13:16:49.215Z,12.60
2023-02-02T13:19:34.231Z,12.30
2023-02-02T13:22:06.061Z,12.20
2023-02-02T13:24:38.747Z,12.20
2023-02-02T13:27:14.642Z,12.30
2023-02-02T13:29:50.501Z,12.20
2023-02-02T13:32:32.066Z,12.30
2023-02-02T13:35:23.157Z,12.90
2023-02-02T13:38:10.575Z,13.50
2023-02-02T13:40:40.776Z,14.00
2023-02-02T13:43:23.154Z,14.10
2023-02-02T13:45:55.945Z,14.00
2023-02-02T13:48:47.620Z,13.70
2023-02-02T13:51:35.993Z,13.10
2023-02-02T13:54:33.906Z,12.70
2023-02-02T13:57:15.413Z,12.10
2023-02-02T13:59:57.641Z,11.70
2023-02-02T14:02:49.097Z,11.70
2023-02-02T14:05:38.819Z,11.70
2023-02-02T14:08:12.301Z,11.90
2023-02-02T14:10:42.265Z,12.00
2023-02-02T14:13:32.126Z,12.10
2023-02-02T14:16:07.009Z,12.10
2023-02-02T14:19:03.481Z,12.10
2023-02-02T14:21:33.576Z,12.10
2023-02-02T14:24:07.271Z,12.00
2023-02-02T14:26:53.072Z,12.10
2023-02-02T14:29:32.796Z,12.20
2023-02-02T14:32:02.805Z,11.90
2023-02-02T14:34:37.613Z,11.70
2023-02-02T14:37:17.082Z,11.70
2023-02-02T14:40:08.901Z,11.40
2023-02-02T14:43:16.420Z,11.30
2023-02-02T14:45:51.224Z,11.00
2023-02-02T14:48:29.783Z,11.00
2023-02-02T14:51:01.761Z,10.90
2023-02-02T14:53:31.836Z,10.70
2023-02-02T14:56:03.890Z,10.80
2023-02-02T14:58:45.919Z,10.70
2023-02-02T15:01:25.341Z,10.70
2023-02-02T15:03:57.625Z,10.70
2023-02-02T15:06:32.799Z,10.70
2023-02-02T15:09:28.402Z,10.60
2023-02-02T15:12:02.180Z,10.60
2023-02-02T15:14:44.267Z,10.60
2023-02-02T15:17:33.053Z,10.50
2023-02-02T15:20:14.352Z,10.60
2023-02-02T15:22:58.227Z,10.80
2023-02-02T15:25:42.844Z,10.90
2023-02-02T15:28:44.551Z,10.90
2023-02-02T15:31:17.299Z,11.00
2023-02-02T15:33:49.634Z,11.00
2023-02-02T15:36:20.789Z,10.90
2023-02-02T15:38:54.320Z,10.80
2023-02-02T15:41:28.727Z,10.90
2023-02-02T15:43:58.330Z,11.00
2023-02-02T15:46:31.544Z,10.90
2023-02-02T15:49:33.394Z,11.00
2023-02-02T15:52:25.965Z,10.90
2023-02-02T15:54:56.123Z,10.90
2023-02-02T15:57:31.814Z,10.90
2023-02-02T16:00:28.581Z,11.00
2023-02-02T16:03:18.806Z,11.10
2023-02-02T16:05:52.097Z,11.00
2023-02-02T16:08:42.287Z,11.00
2023-02-02T16:11:23.434Z,11.00
2023-02-02T16:14:07.575Z,11.10
2023-02-02T16:16:39.687Z,11.10
2023-02-02T16:19:20.934Z,11.00
2023-02-02T16:21:50.317Z,11.10
2023-02-02T16:24:28.015Z,11.00
2023-02-02T16:26:58.883Z,10.90
2023-02-02T16:29:29.519Z,10.90
2023-02-02T16:32:00.072Z,10.90
2023-02-02T16:34:46.829Z,10.90
2023-02-02T16:37:18.619Z,11.00
2023-02-02T16:39:49.165Z,10.90
2023-02-02T16:42:33.595Z,10.90
2023-02-02T16:45:01.376Z,10.90
2023-02-02T16:47:33.081Z,11.00
2023-02-02T16:50:09.450Z,11.00
2023-02-02T16:53:04.459Z,11.00
2023-02-02T16:55:50.116Z,11.00
2023-02-02T16:58:25.994Z,11.00
2023-02-02T17:01:14.406Z,11.00
2023-02-02T17:03:53.310Z,11.10
2023-02-02T17:06:45.664Z,11.10
2023-02-02T17:09:34.049Z,11.10
2023-02-02T17:12:35.211Z,11.00
2023-02-02T17:15:29.503Z,11.00
2023-02-02T17:17:56.864Z,11.10
2023-02-02T17:20:24.763Z,11.00
2023-02-02T17:23:02.589Z,11.00
2023-02-02T17:25:29.946Z,11.00
2023-02-02T17:28:02.852Z,11.10
2023-02-02T17:30:32.436Z,11.20
2023-02-02T17:33:01.846Z,11.10
2023-02-02T17:35:39.911Z,11.20
2023-02-02T17:38:17.347Z,11.10
2023-02-02T17:40:44.931Z,11.00
2023-02-02T17:43:16.111Z,11.00
2023-02-02T17:45:43.833Z,10.90
2023-02-02T17:48:15.434Z,10.90
2023-02-02T17:50:43.718Z,10.90
2023-02-02T17:53:21.428Z,10.90
2023-02-02T17:55:50.069Z,10.90
2023-02-02T17:58:20.165Z,10.90
2023-02-02T18:00:54.566Z,10.90
2023-02-02T18:03:28.666Z,10.80
2023-02-02T18:06:03.815Z,10.70
2023-02-02T18:08:32.747Z,10.70
2023-02-02T18:11:05.035Z,10.60
2023-02-02T18:13:34.859Z,10.50
2023-02-02T18:16:04.644Z,10.30
2023-02-02T18:18:34.247Z,10.40
2023-02-02T18:21:07.387Z,10.30
2023-02-02T18:23:37.390Z,10.20
2023-02-02T18:26:17.428Z,10.20
2023-02-02T18:28:50.504Z,10.30
2023-02-02T18:31:20.624Z,10.40
2023-02-02T18:33:48.020Z,10.40
2023-02-02T18:36:21.018Z,10.40
2023-02-02T18:38:49.097Z,10.40
2023-02-02T18:41:21.512Z,10.40
2023-02-02T18:43:49.626Z,10.50
2023-02-02T18:46:17.465Z,10.50
2023-02-02T18:48:47.222Z,10.50
2023-02-02T18:51:18.043Z,10.50
2023-02-02T18:53:46.888Z,10.50
2023-02-02T18:56:14.674Z,10.50
2023-02-02T18:58:42.021Z,10.50
2023-02-02T19:01:15.757Z,10.50
2023-02-02T19:03:48.788Z,10.50
2023-02-02T19:06:34.644Z,10.50
2023-02-02T19:09:02.242Z,10.50
2023-02-02T19:11:42.925Z,10.50
2023-02-02T19:14:15.957Z,10.50
2023-02-02T19:16:45.432Z,10.60
2023-02-02T19:19:33.701Z,10.60
2023-02-02T19:22:22.005Z,10.50
2023-02-02T19:24:50.196Z,10.50
2023-02-02T19:27:21.465Z,10.60
2023-02-02T19:29:54.211Z,10.60
2023-02-02T19:32:25.148Z,10.60
2023-02-02T19:34:53.300Z,10.70
2023-02-02T19:37:26.549Z,10.60
2023-02-02T19:40:21.379Z,10.70
2023-02-02T19:42:59.840Z,10.70
2023-02-02T19:45:34.303Z,10.80
2023-02-02T19:48:12.905Z,10.70
2023-02-02T19:50:43.042Z,10.70
2023-02-02T19:53:23.941Z,10.70
2023-02-02T19:55:54.472Z,10.70
2023-02-02T19:58:29.829Z,10.60
2023-02-02T20:00:58.166Z,10.50
2023-02-02T20:03:42.948Z,10.50
2023-02-02T20:06:33.099Z,10.50
2023-02-02T20:09:10.993Z,10.50
2023-02-02T20:11:44.808Z,10.60
2023-02-02T20:14:29.145Z,10.60
2023-02-02T20:17:15.958Z,10.50
2023-02-02T20:19:46.069Z,10.60
2023-02-02T20:22:28.293Z,10.70
2023-02-02T20:25:06.013Z,10.60
2023-02-02T20:27:37.829Z,10.50
2023-02-02T20:30:24.379Z,10.50
2023-02-02T20:32:55.578Z,10.60
2023-02-02T20:35:27.377Z,10.60
2023-02-02T20:37:55.870Z,10.60
2023-02-02T20:40:28.597Z,10.70
2023-02-02T20:42:58.393Z,10.70
2023-02-02T20:45:28.404Z,10.70
2023-02-02T20:48:02.843Z,10.70
2023-02-02T20:50:30.181Z,10.70
2023-02-02T20:52:59.964Z,10.70
2023-02-02T20:55:30.013Z,10.70
2023-02-02T20:57:57.486Z,10.70
2023-02-02T21:00:27.919Z,10.70
2023-02-02T21:02:57.533Z,10.70
2023-02-02T21:05:24.937Z,10.70
2023-02-02T21:07:55.624Z,10.60
2023-02-02T21:10:26.363Z,10.60
2023-02-02T21:12:53.943Z,10.70
2023-02-02T21:15:26.415Z,10.80
2023-02-02T21:17:54.175Z,10.70
2023-02-02T21:20:21.574Z,10.70
2023-02-02T21:22:51.015Z,10.70
2023-02-02T21:25:18.307Z,10.80
2023-02-02T21:27:47.676Z,10.70
2023-02-02T21:30:17.511Z,10.70
2023-02-02T21:32:44.867Z,10.70
2023-02-02T21:35:14.138Z,10.70
2023-02-02T21:37:43.455Z,10.70
2023-02-02T21:40:22.494Z,10.70
2023-02-02T21:42:52.370Z,10.70
2023-02-02T21:45:28.531Z,10.70
2023-02-02T21:48:01.165Z,10.80
2023-02-02T21:50:32.851Z,10.80
2023-02-02T21:53:21.920Z,10.70
2023-02-02T21:56:00.984Z,10.80
2023-02-02T21:58:38.360Z,10.80
2023-02-02T22:01:34.400Z,10.80
2023-02-02T22:04:06.606Z,10.70
2023-02-02T22:06:36.501Z,10.70
2023-02-02T22:09:12.901Z,10.70
2023-02-02T22:12:01.695Z,10.80
2023-02-02T22:14:31.950Z,10.80
2023-02-02T22:17:00.208Z,10.90
2023-02-02T22:19:29.755Z,10.90
2023-02-02T22:22:17.686Z,10.90
2023-02-02T22:24:46.917Z,10.90
2023-02-02T22:27:25.908Z,10.80
2023-02-02T22:30:13.808Z,10.80
2023-02-02T22:32:41.055Z,10.80
2023-02-02T22:35:08.496Z,10.90
2023-02-02T22:37:38.206Z,10.90
2023-02-02T22:40:05.830Z,10.90
2023-02-02T22:42:35.182Z,10.80
2023-02-02T22:45:05.015Z,10.90
2023-02-02T22:47:32.244Z,10.90
2023-02-02T22:49:59.480Z,10.80
2023-02-02T22:52:28.933Z,10.80
2023-02-02T22:54:56.203Z,10.90
2023-02-02T22:57:23.476Z,10.90
2023-02-02T22:59:50.762Z,10.90
2023-02-02T23:02:18.021Z,10.90
2023-02-02T23:04:45.628Z,10.90
2023-02-02T23:07:15.339Z,10.90
2023-02-02T23:09:42.767Z,10.90
2023-02-02T23:12:10.121Z,10.90
2023-02-02T23:14:37.355Z,10.80
2023-02-02T23:17:04.637Z,10.80
2023-02-02T23:19:34.326Z,10.80
2023-02-02T23:22:04.729Z,10.80
2023-02-02T23:24:32.134Z,10.80
2023-02-02T23:27:01.934Z,10.80
2023-02-02T23:29:29.157Z,10.70
2023-02-02T23:31:59.220Z,10.70
2023-02-02T23:34:28.581Z,10.70
2023-02-02T23:36:55.845Z,10.70
2023-02-02T23:39:23.109Z,10.70
2023-02-02T23:41:50.400Z,10.70
2023-02-02T23:44:17.642Z,10.70
2023-02-02T23:46:44.945Z,10.80
2023-02-02T23:49:12.357Z,10.80
2023-02-02T23:51:39.752Z,10.80
2023-02-02T23:54:10.390Z,10.80
2023-02-02T23:56:37.735Z,10.80
2023-02-02T23:59:04.965Z,10.70
